createdAt,value
2023-01-09T00:01:26.494Z,182.93
2023-01-09T00:03:51.216Z,189.38
2023-01-09T00:06:16.117Z,191.50
2023-01-09T00:08:40.725Z,133.70
2023-01-09T00:11:05.327Z,147.43
2023-01-09T00:13:29.811Z,132.45
2023-01-09T00:15:55.537Z,111.25
2023-01-09T00:18:19.995Z,130.35
2023-01-09T00:20:44.342Z,136.98
2023-01-09T00:23:08.857Z,139.02
2023-01-09T00:25:33.592Z,120.97
2023-01-09T00:27:58.033Z,174.75
2023-01-09T00:30:22.604Z,125.05
2023-01-09T00:32:48.868Z,151.15
2023-01-09T00:35:16.966Z,149.68
2023-01-09T00:37:41.377Z,153.13
2023-01-09T00:40:06.398Z,143.55
2023-01-09T00:42:35.301Z,142.07
2023-01-09T00:45:03.407Z,156.82
2023-01-09T00:47:30.574Z,205.23
2023-01-09T00:49:59.235Z,153.05
2023-01-09T00:52:24.096Z,141.02
2023-01-09T00:54:49.143Z,150.65
2023-01-09T00:57:14.872Z,171.25
2023-01-09T00:59:39.341Z,133.10
2023-01-09T01:02:03.803Z,180.40
2023-01-09T01:04:46.007Z,115.22
2023-01-09T01:07:29.127Z,205.25
2023-01-09T01:09:53.537Z,138.57
2023-01-09T01:12:18.010Z,156.50
2023-01-09T01:14:42.495Z,140.77
2023-01-09T01:17:07.844Z,155.90
2023-01-09T01:19:32.381Z,149.82
2023-01-09T01:21:57.457Z,154.35
2023-01-09T01:24:23.313Z,113.72
2023-01-09T01:26:48.357Z,107.75
2023-01-09T01:29:12.937Z,142.65
2023-01-09T01:31:37.302Z,187.50
2023-01-09T01:34:01.675Z,170.05
2023-01-09T01:36:26.165Z,187.32
2023-01-09T01:38:50.624Z,146.80
2023-01-09T01:41:29.572Z,162.05
2023-01-09T01:43:56.102Z,148.35
2023-01-09T01:46:20.601Z,148.02
2023-01-09T01:48:45.710Z,130.05
2023-01-09T01:51:10.768Z,143.90
2023-01-09T01:53:37.862Z,138.75
2023-01-09T01:56:07.572Z,173.35
2023-01-09T01:58:35.410Z,185.02
2023-01-09T02:01:00.174Z,132.23
2023-01-09T02:03:29.407Z,183.85
2023-01-09T02:05:53.780Z,145.02
2023-01-09T02:08:18.985Z,135.68
2023-01-09T02:10:44.038Z,154.23
2023-01-09T02:13:10.273Z,201.43
2023-01-09T02:15:47.733Z,166.57
2023-01-09T02:18:35.763Z,136.73
2023-01-09T02:21:04.279Z,164.73
2023-01-09T02:24:14.501Z,170.57
2023-01-09T02:27:04.499Z,248.88
2023-01-09T02:32:11.911Z,126.28
2023-01-09T02:34:43.670Z,290.30
2023-01-09T02:37:18.859Z,216.90
2023-01-09T02:39:52.802Z,158.02
2023-01-09T02:42:22.441Z,116.50
2023-01-09T02:44:46.843Z,119.95
2023-01-09T02:47:49.834Z,124.07
2023-01-09T02:50:19.763Z,121.80
2023-01-09T02:55:38.514Z,93.72
2023-01-09T02:58:11.411Z,108.93
2023-01-09T03:00:42.226Z,95.13
2023-01-09T03:03:13.190Z,83.68
2023-01-09T03:05:44.388Z,132.02
2023-01-09T03:08:14.285Z,150.15
2023-01-09T03:10:43.587Z,98.18
2023-01-09T03:13:13.263Z,111.78
2023-01-09T03:15:40.734Z,107.55
2023-01-09T03:18:07.019Z,95.63
2023-01-09T03:20:32.581Z,107.70
2023-01-09T03:23:00.179Z,91.28
2023-01-09T03:25:24.921Z,143.02
2023-01-09T03:27:49.592Z,177.25
2023-01-09T03:30:14.478Z,148.85
2023-01-09T03:32:38.792Z,166.95
2023-01-09T03:35:03.121Z,128.98
2023-01-09T03:37:27.599Z,133.05
2023-01-09T03:39:53.318Z,149.95
2023-01-09T03:42:17.862Z,144.25
2023-01-09T03:44:42.167Z,102.97
2023-01-09T03:47:06.556Z,151.43
2023-01-09T03:49:30.843Z,132.70
2023-01-09T03:51:55.149Z,180.02
2023-01-09T03:54:19.548Z,125.70
2023-01-09T03:56:45.960Z,134.43
2023-01-09T03:59:10.356Z,126.78
2023-01-09T04:01:35.427Z,163.20
2023-01-09T04:04:00.017Z,130.63
2023-01-09T04:06:24.351Z,138.88
2023-01-09T04:08:48.725Z,90.40
2023-01-09T04:11:13.049Z,109.60
2023-01-09T04:13:38.750Z,120.70
2023-01-09T04:16:04.164Z,160.68
2023-01-09T04:18:28.629Z,129.27
2023-01-09T04:20:55.208Z,201.05
2023-01-09T04:23:19.672Z,132.30
2023-01-09T04:25:44.193Z,120.70
2023-01-09T04:28:08.506Z,123.78
2023-01-09T04:30:34.338Z,126.80
2023-01-09T04:32:58.826Z,168.25
2023-01-09T04:35:23.602Z,147.52
2023-01-09T04:37:48.337Z,138.48
2023-01-09T04:40:14.149Z,112.15
2023-01-09T04:42:38.626Z,128.27
2023-01-09T04:45:02.952Z,137.90
2023-01-09T04:47:31.159Z,142.35
2023-01-09T04:50:01.613Z,117.43
2023-01-09T04:52:26.796Z,135.20
2023-01-09T04:54:51.154Z,147.63
2023-01-09T04:57:15.603Z,142.30
2023-01-09T04:59:39.919Z,119.80
2023-01-09T05:02:04.449Z,167.43
2023-01-09T05:04:30.289Z,115.22
2023-01-09T05:06:54.865Z,112.78
2023-01-09T05:09:19.519Z,158.40
2023-01-09T05:11:46.235Z,133.73
2023-01-09T05:14:10.587Z,187.43
2023-01-09T05:16:35.126Z,135.27
2023-01-09T05:19:00.566Z,109.78
2023-01-09T05:21:26.490Z,114.07
2023-01-09T05:23:51.001Z,73.45
2023-01-09T05:26:15.448Z,132.70
2023-01-09T05:28:39.721Z,95.72
2023-01-09T05:31:04.141Z,134.57
2023-01-09T05:33:28.569Z,139.90
2023-01-09T05:35:52.969Z,136.23
2023-01-09T05:38:18.957Z,95.30
2023-01-09T05:40:43.367Z,136.38
2023-01-09T05:43:07.681Z,87.88
2023-01-09T05:45:32.055Z,90.28
2023-01-09T05:47:56.413Z,121.43
2023-01-09T05:50:21.066Z,96.07
2023-01-09T05:52:45.511Z,144.23
2023-01-09T05:55:13.464Z,189.43
2023-01-09T05:57:37.721Z,146.38
2023-01-09T06:00:02.101Z,113.07
2023-01-09T06:02:31.496Z,140.52
2023-01-09T06:04:56.271Z,151.40
2023-01-09T06:07:23.363Z,126.82
2023-01-09T06:09:47.864Z,86.03
2023-01-09T06:12:14.025Z,79.70
2023-01-09T06:14:38.402Z,106.03
2023-01-09T06:17:23.285Z,91.93
2023-01-09T06:19:50.488Z,90.97
2023-01-09T06:22:15.003Z,92.28
2023-01-09T06:24:39.519Z,85.45
2023-01-09T06:27:22.365Z,107.35
2023-01-09T06:29:46.773Z,105.47
2023-01-09T06:32:11.161Z,144.63
2023-01-09T06:34:35.716Z,114.32
2023-01-09T06:37:00.155Z,105.13
2023-01-09T06:39:24.682Z,107.47
2023-01-09T06:41:49.295Z,149.98
2023-01-09T06:44:15.156Z,142.07
2023-01-09T06:46:39.752Z,107.00
2023-01-09T06:49:04.104Z,123.50
2023-01-09T06:51:28.558Z,94.07
2023-01-09T06:53:52.864Z,145.38
2023-01-09T06:56:17.319Z,123.45
2023-01-09T06:58:41.734Z,133.02
2023-01-09T07:01:07.870Z,97.80
2023-01-09T07:03:33.738Z,87.82
2023-01-09T07:05:58.487Z,105.05
2023-01-09T07:08:23.088Z,138.32
2023-01-09T07:10:47.450Z,122.43
2023-01-09T07:13:12.229Z,87.97
2023-01-09T07:15:36.830Z,90.70
2023-01-09T07:18:02.684Z,111.60
2023-01-09T07:20:28.432Z,118.63
2023-01-09T07:22:54.083Z,98.28
2023-01-09T07:25:18.599Z,73.43
2023-01-09T07:27:43.122Z,104.75
2023-01-09T07:30:09.733Z,62.92
2023-01-09T07:32:34.349Z,77.20
2023-01-09T07:35:00.198Z,85.05
2023-01-09T07:37:24.816Z,60.97
2023-01-09T07:39:49.326Z,49.72
2023-01-09T07:42:13.946Z,51.42
2023-01-09T07:44:38.352Z,78.63
2023-01-09T07:47:02.800Z,79.22
2023-01-09T07:49:27.140Z,64.72
2023-01-09T07:51:52.861Z,78.70
2023-01-09T07:54:17.436Z,131.27
2023-01-09T07:56:42.097Z,57.22
2023-01-09T07:59:06.424Z,80.80
2023-01-09T08:01:31.068Z,99.63
2023-01-09T08:03:55.533Z,51.13
2023-01-09T08:06:20.058Z,55.03
2023-01-09T08:08:45.845Z,97.60
2023-01-09T08:11:11.127Z,64.25
2023-01-09T08:13:35.436Z,54.60
2023-01-09T08:15:59.869Z,58.65
2023-01-09T08:18:24.204Z,83.68
2023-01-09T08:20:49.881Z,56.55
2023-01-09T08:23:14.542Z,64.45
2023-01-09T08:25:40.443Z,51.13
2023-01-09T08:28:04.855Z,49.47
2023-01-09T08:30:29.260Z,46.13
2023-01-09T08:32:55.567Z,43.53
2023-01-09T08:35:20.630Z,34.78
2023-01-09T08:37:45.667Z,37.85
2023-01-09T08:40:12.114Z,44.00
2023-01-09T08:42:56.330Z,40.00
2023-01-09T08:45:38.269Z,49.15
2023-01-09T08:48:03.318Z,68.45
2023-01-09T08:50:28.392Z,38.92
2023-01-09T08:52:52.779Z,42.92
2023-01-09T08:55:17.428Z,60.05
2023-01-09T08:57:49.526Z,73.20
2023-01-09T09:00:15.468Z,55.00
2023-01-09T09:02:39.930Z,46.00
2023-01-09T09:05:04.440Z,51.33
2023-01-09T09:07:28.773Z,45.88
2023-01-09T09:09:53.472Z,49.13
2023-01-09T09:12:17.809Z,52.65
2023-01-09T09:15:00.661Z,40.75
2023-01-09T09:17:27.702Z,52.15
2023-01-09T09:19:52.002Z,48.30
2023-01-09T09:22:17.284Z,46.80
2023-01-09T09:24:41.557Z,62.70
2023-01-09T09:27:06.268Z,43.10
2023-01-09T09:29:30.592Z,36.53
2023-01-09T09:31:56.377Z,41.60
2023-01-09T09:34:20.702Z,33.08
2023-01-09T09:36:45.302Z,34.67
2023-01-09T09:39:09.745Z,38.00
2023-01-09T09:42:19.078Z,31.25
2023-01-09T09:44:59.382Z,35.33
2023-01-09T09:47:45.782Z,32.30
2023-01-09T09:50:28.363Z,32.53
2023-01-09T09:53:00.660Z,52.10
2023-01-09T09:55:29.974Z,36.55
2023-01-09T09:57:55.650Z,39.77
2023-01-09T10:00:22.627Z,50.53
2023-01-09T10:02:53.139Z,48.33
2023-01-09T10:05:24.461Z,45.08
2023-01-09T10:07:51.379Z,40.85
2023-01-09T10:10:20.512Z,40.70
2023-01-09T10:12:53.445Z,39.88
2023-01-09T10:15:22.755Z,38.22
2023-01-09T10:18:07.201Z,44.80
2023-01-09T10:20:53.153Z,47.65
2023-01-09T10:23:40.458Z,47.72
2023-01-09T10:26:11.977Z,47.63
2023-01-09T10:28:57.500Z,53.20
2023-01-09T10:31:30.615Z,53.25
2023-01-09T10:34:05.611Z,57.05
2023-01-09T10:36:57.839Z,58.50
2023-01-09T10:39:25.993Z,62.05
2023-01-09T10:41:58.645Z,56.28
2023-01-09T10:44:33.391Z,49.72
2023-01-09T10:46:58.981Z,49.92
2023-01-09T10:49:26.021Z,53.90
2023-01-09T10:52:05.582Z,57.25
2023-01-09T10:54:31.035Z,51.80
2023-01-09T10:56:57.437Z,46.95
2023-01-09T10:59:22.077Z,46.55
2023-01-09T11:01:46.699Z,51.95
2023-01-09T11:04:24.847Z,45.03
2023-01-09T11:06:56.255Z,41.67
2023-01-09T11:09:20.715Z,44.10
2023-01-09T11:11:45.536Z,40.33
2023-01-09T11:14:16.395Z,45.35
2023-01-09T11:16:51.540Z,39.90
2023-01-09T11:19:16.452Z,40.85
2023-01-09T11:21:42.103Z,42.72
2023-01-09T11:24:28.937Z,44.05
2023-01-09T11:26:55.103Z,45.38
2023-01-09T11:29:21.378Z,41.67
2023-01-09T11:31:52.761Z,41.85
2023-01-09T11:34:19.239Z,40.97
2023-01-09T11:36:43.793Z,46.42
2023-01-09T11:39:24.022Z,52.08
2023-01-09T11:41:55.219Z,43.28
2023-01-09T11:44:19.876Z,37.92
2023-01-09T11:46:45.746Z,40.13
2023-01-09T11:49:24.023Z,34.90
2023-01-09T11:52:05.244Z,46.15
2023-01-09T11:54:33.919Z,48.40
2023-01-09T11:56:58.354Z,47.35
2023-01-09T11:59:26.333Z,45.53
2023-01-09T12:02:13.186Z,42.40
2023-01-09T12:04:42.400Z,37.08
2023-01-09T12:07:48.508Z,40.10
2023-01-09T12:10:36.873Z,41.60
2023-01-09T12:13:12.878Z,44.22
2023-01-09T12:15:46.735Z,35.33
2023-01-09T12:18:27.165Z,40.20
2023-01-09T12:20:59.409Z,44.15
2023-01-09T12:23:38.940Z,50.72
2023-01-09T12:26:17.362Z,47.35
2023-01-09T12:29:14.316Z,44.67
2023-01-09T12:32:04.998Z,44.80
2023-01-09T12:34:53.848Z,45.58
2023-01-09T12:37:38.762Z,52.08
2023-01-09T12:40:12.897Z,38.60
2023-01-09T12:42:47.057Z,38.67
2023-01-09T12:45:28.374Z,45.83
2023-01-09T12:47:55.691Z,40.00
2023-01-09T12:50:36.525Z,34.58
2023-01-09T12:53:10.552Z,43.45
2023-01-09T12:55:37.881Z,32.78
2023-01-09T12:58:09.662Z,33.85
2023-01-09T13:00:38.577Z,28.85
2023-01-09T13:03:13.794Z,30.48
2023-01-09T13:05:42.870Z,31.35
2023-01-09T13:08:13.836Z,33.45
2023-01-09T13:10:43.326Z,31.15
2023-01-09T13:13:15.688Z,34.00
2023-01-09T13:15:45.235Z,33.03
2023-01-09T13:18:20.880Z,30.65
2023-01-09T13:20:49.086Z,35.63
2023-01-09T13:23:23.085Z,33.85
2023-01-09T13:25:50.583Z,32.80
2023-01-09T13:28:21.011Z,33.67
2023-01-09T13:31:08.882Z,36.40
2023-01-09T13:33:36.503Z,37.92
2023-01-09T13:36:03.674Z,35.20
2023-01-09T13:38:36.583Z,35.03
2023-01-09T13:41:28.783Z,32.67
2023-01-09T13:44:01.612Z,35.85
2023-01-09T13:46:50.660Z,37.28
2023-01-09T13:49:35.607Z,36.13
2023-01-09T13:52:05.809Z,38.15
2023-01-09T13:55:16.202Z,35.72
2023-01-09T13:57:48.205Z,37.13
2023-01-09T14:00:53.758Z,36.00
2023-01-09T14:03:22.920Z,31.58
2023-01-09T14:08:43.111Z,31.38
2023-01-09T14:11:08.334Z,33.50
2023-01-09T14:13:35.964Z,37.30
2023-01-09T14:16:10.542Z,33.22
2023-01-09T14:18:43.446Z,36.63
2023-01-09T14:21:22.046Z,39.08
2023-01-09T14:23:59.504Z,33.83
2023-01-09T14:26:47.964Z,36.55
2023-01-09T14:29:43.729Z,39.00
2023-01-09T14:32:43.490Z,39.78
2023-01-09T14:35:25.627Z,45.60
2023-01-09T14:38:03.103Z,36.70
2023-01-09T14:40:28.976Z,42.25
2023-01-09T14:43:00.511Z,44.17
2023-01-09T14:45:33.399Z,49.88
2023-01-09T14:48:11.213Z,44.72
2023-01-09T14:50:45.830Z,46.28
2023-01-09T14:53:21.097Z,51.92
2023-01-09T14:56:00.422Z,48.65
2023-01-09T14:58:29.263Z,52.15
2023-01-09T15:00:59.908Z,45.38
2023-01-09T15:05:52.959Z,46.28
2023-01-09T15:08:21.047Z,43.28
2023-01-09T15:10:51.353Z,42.75
2023-01-09T15:13:19.547Z,55.03
2023-01-09T15:15:50.344Z,63.75
2023-01-09T15:18:29.474Z,58.58
2023-01-09T15:20:59.219Z,53.25
2023-01-09T15:23:25.635Z,51.50
2023-01-09T15:25:56.680Z,51.00
2023-01-09T15:28:44.909Z,49.60
2023-01-09T15:31:15.405Z,50.40
2023-01-09T15:33:43.498Z,49.30
2023-01-09T15:36:16.925Z,50.10
2023-01-09T15:38:53.744Z,51.60
2023-01-09T15:41:40.927Z,52.13
2023-01-09T15:44:08.227Z,46.97
2023-01-09T15:46:40.458Z,50.25
2023-01-09T15:49:13.619Z,52.33
2023-01-09T15:51:43.882Z,49.53
2023-01-09T15:54:11.916Z,50.45
2023-01-09T15:56:39.731Z,48.38
2023-01-09T15:59:18.295Z,57.55
2023-01-09T16:02:07.665Z,50.25
2023-01-09T16:04:42.142Z,50.90
2023-01-09T16:07:17.666Z,52.40
2023-01-09T16:09:47.593Z,58.75
2023-01-09T16:14:46.611Z,57.83
2023-01-09T16:17:21.563Z,58.45
2023-01-09T16:19:50.696Z,65.18
2023-01-09T16:22:21.893Z,83.63
2023-01-09T16:24:52.066Z,87.32
2023-01-09T16:27:27.528Z,65.20
2023-01-09T16:29:58.385Z,56.78
2023-01-09T16:32:26.086Z,66.63
2023-01-09T16:35:06.144Z,49.25
2023-01-09T16:37:46.757Z,55.63
2023-01-09T16:40:36.298Z,50.67
2023-01-09T16:43:01.651Z,47.20
2023-01-09T16:45:27.113Z,61.63
2023-01-09T16:47:53.356Z,52.95
2023-01-09T16:50:25.185Z,52.10
2023-01-09T16:52:50.511Z,53.15
2023-01-09T16:55:16.754Z,51.58
2023-01-09T16:57:44.381Z,56.38
2023-01-09T17:00:17.847Z,54.42
2023-01-09T17:02:44.173Z,54.97
2023-01-09T17:05:13.591Z,57.75
2023-01-09T17:07:42.605Z,50.97
2023-01-09T17:10:23.475Z,50.83
2023-01-09T17:12:50.750Z,48.63
2023-01-09T17:15:18.031Z,51.85
2023-01-09T17:17:42.669Z,49.92
2023-01-09T17:20:17.869Z,53.58
2023-01-09T17:22:45.454Z,51.22
2023-01-09T17:25:32.343Z,48.53
2023-01-09T17:28:14.458Z,51.88
2023-01-09T17:30:38.876Z,54.88
2023-01-09T17:33:05.146Z,61.83
2023-01-09T17:35:30.440Z,56.83
2023-01-09T17:37:56.299Z,65.85
2023-01-09T17:40:22.374Z,62.60
2023-01-09T17:42:47.603Z,56.58
2023-01-09T17:45:15.895Z,59.92
2023-01-09T17:47:40.315Z,58.08
2023-01-09T17:50:05.270Z,64.00
2023-01-09T17:52:29.995Z,54.83
2023-01-09T17:54:56.159Z,58.78
2023-01-09T17:57:26.822Z,49.65
2023-01-09T17:59:54.447Z,53.40
2023-01-09T18:02:22.289Z,56.03
2023-01-09T18:04:48.768Z,55.85
2023-01-09T18:07:24.175Z,53.60
2023-01-09T18:10:27.948Z,48.75
2023-01-09T18:12:56.135Z,65.35
2023-01-09T18:15:21.919Z,59.28
2023-01-09T18:17:48.613Z,55.97
2023-01-09T18:20:16.136Z,53.70
2023-01-09T18:22:43.961Z,64.32
2023-01-09T18:25:13.106Z,53.35
2023-01-09T18:27:40.120Z,70.85
2023-01-09T18:30:06.867Z,112.13
2023-01-09T18:32:38.730Z,101.70
2023-01-09T18:35:06.487Z,76.88
2023-01-09T18:37:31.613Z,69.05
2023-01-09T18:40:05.002Z,62.95
2023-01-09T18:42:30.827Z,59.38
2023-01-09T18:44:55.116Z,57.88
2023-01-09T18:47:19.543Z,49.28
2023-01-09T18:49:43.871Z,53.03
2023-01-09T18:52:08.366Z,51.97
2023-01-09T18:54:32.899Z,56.65
2023-01-09T18:56:59.702Z,53.55
2023-01-09T18:59:28.600Z,50.45
2023-01-09T19:01:53.990Z,52.67
2023-01-09T19:04:22.434Z,51.95
2023-01-09T19:06:49.356Z,55.78
2023-01-09T19:09:14.481Z,49.50
2023-01-09T19:11:39.223Z,47.72
2023-01-09T19:14:03.631Z,52.92
2023-01-09T19:16:29.508Z,48.92
2023-01-09T19:18:53.834Z,50.60
2023-01-09T19:21:23.876Z,45.58
2023-01-09T19:26:23.809Z,43.70
2023-01-09T19:28:51.937Z,42.67
2023-01-09T19:31:21.930Z,49.03
2023-01-09T19:33:52.669Z,45.50
2023-01-09T19:36:17.381Z,39.67
2023-01-09T19:38:41.777Z,46.85
2023-01-09T19:41:13.119Z,39.20
2023-01-09T19:43:40.625Z,42.38
2023-01-09T19:46:13.037Z,36.75
2023-01-09T19:48:38.007Z,39.05
2023-01-09T19:51:04.770Z,44.83
2023-01-09T19:53:30.330Z,48.38
2023-01-09T19:55:54.981Z,38.75
2023-01-09T19:58:19.528Z,34.92
2023-01-09T20:00:46.824Z,38.88
2023-01-09T20:03:11.707Z,46.13
2023-01-09T20:05:39.175Z,42.70
2023-01-09T20:08:06.417Z,44.65
2023-01-09T20:10:31.276Z,47.70
2023-01-09T20:12:59.701Z,40.08
2023-01-09T20:15:24.528Z,42.70
2023-01-09T20:17:52.073Z,42.83
2023-01-09T20:22:50.466Z,48.03
2023-01-09T20:25:16.704Z,50.17
2023-01-09T20:27:41.283Z,51.63
2023-01-09T20:30:10.157Z,43.72
2023-01-09T20:32:38.867Z,41.45
2023-01-09T20:35:12.921Z,50.80
2023-01-09T20:37:41.973Z,50.78
2023-01-09T20:40:17.623Z,71.77
2023-01-09T20:42:46.293Z,88.65
2023-01-09T20:45:14.737Z,125.90
2023-01-09T20:47:39.718Z,91.78
2023-01-09T20:50:07.686Z,93.38
2023-01-09T20:52:37.572Z,83.50
2023-01-09T20:55:10.382Z,105.25
2023-01-09T20:57:49.839Z,58.95
2023-01-09T21:00:23.062Z,60.10
2023-01-09T21:02:47.836Z,55.97
2023-01-09T21:05:12.428Z,60.38
2023-01-09T21:07:45.327Z,61.65
2023-01-09T21:10:15.269Z,71.47
2023-01-09T21:12:50.440Z,89.68
2023-01-09T21:59:58.976Z,87.43
2023-01-09T22:02:23.353Z,69.03
2023-01-09T22:04:49.170Z,118.95
2023-01-09T22:07:13.549Z,155.02
2023-01-09T22:09:39.148Z,205.93
2023-01-09T22:12:03.566Z,114.53
2023-01-09T22:14:29.466Z,143.80
2023-01-09T22:16:53.770Z,214.90
2023-01-09T22:19:18.653Z,145.38
2023-01-09T22:21:43.213Z,70.63
2023-01-09T22:24:08.271Z,41.15
2023-01-09T22:26:32.680Z,33.45
2023-01-09T22:28:57.709Z,34.67
2023-01-09T22:31:25.204Z,44.80
2023-01-09T22:33:53.524Z,40.83
2023-01-09T22:36:18.061Z,37.55
2023-01-09T22:38:42.549Z,36.78
2023-01-09T22:41:07.919Z,39.38
2023-01-09T22:43:32.753Z,40.28
2023-01-09T22:46:01.232Z,44.80
2023-01-09T22:48:28.819Z,43.67
2023-01-09T22:50:53.244Z,45.08
2023-01-09T22:53:17.619Z,40.53
2023-01-09T22:55:42.079Z,42.80
2023-01-09T22:58:06.407Z,43.33
2023-01-09T23:00:31.072Z,43.88
2023-01-09T23:02:55.794Z,45.70
2023-01-09T23:05:21.784Z,44.47
2023-01-09T23:07:46.548Z,45.95
2023-01-09T23:10:12.098Z,39.50
2023-01-09T23:12:37.097Z,41.50
2023-01-09T23:15:01.504Z,43.13
2023-01-09T23:17:26.010Z,38.38
2023-01-09T23:19:50.317Z,43.42
2023-01-09T23:22:19.289Z,48.35
2023-01-09T23:24:44.019Z,45.47
2023-01-09T23:27:08.723Z,51.13
2023-01-09T23:29:59.035Z,54.97
2023-01-09T23:32:23.590Z,47.63
2023-01-09T23:34:49.555Z,45.83
2023-01-09T23:37:13.935Z,53.92
2023-01-09T23:39:39.942Z,53.78
2023-01-09T23:42:21.836Z,55.22
2023-01-09T23:44:46.329Z,61.10
2023-01-09T23:47:10.639Z,57.40
2023-01-09T23:49:35.032Z,68.63
2023-01-09T23:52:01.698Z,62.22
2023-01-09T23:54:26.326Z,63.50
2023-01-09T23:56:53.376Z,55.83
2023-01-09T23:59:18.201Z,56.25
